sensor_id;sensor_type;location;lat;lon;timestamp;pressure;altitude;pressure_sealevel;temperature
71630;BMP280;59479;51.902;8.212;2023-06-14T00:02:15;100849.81;;;22.29
71630;BMP280;59479;51.902;8.212;2023-06-14T00:04:40;100845.88;;;22.22
71630;BMP280;59479;51.902;8.212;2023-06-14T00:07:06;100842.38;;;22.23
71630;BMP280;59479;51.902;8.212;2023-06-14T00:09:34;100846.09;;;22.16
71630;BMP280;59479;51.902;8.212;2023-06-14T00:12:00;100847.69;;;22.19
71630;BMP280;59479;51.902;8.212;2023-06-14T00:14:26;100851.13;;;22.19
71630;BMP280;59479;51.902;8.212;2023-06-14T00:16:51;100861.34;;;22.19
71630;BMP280;59479;51.902;8.212;2023-06-14T00:19:18;100864.06;;;22.15
71630;BMP280;59479;51.902;8.212;2023-06-14T00:21:45;100856.38;;;22.15
71630;BMP280;59479;51.902;8.212;2023-06-14T00:24:11;100861.78;;;22.09
71630;BMP280;59479;51.902;8.212;2023-06-14T00:26:36;100861.97;;;22.04
71630;BMP280;59479;51.902;8.212;2023-06-14T00:29:01;100863.63;;;22.05
71630;BMP280;59479;51.902;8.212;2023-06-14T00:31:27;100858.59;;;22.04
71630;BMP280;59479;51.902;8.212;2023-06-14T00:33:52;100867.97;;;22.03
71630;BMP280;59479;51.902;8.212;2023-06-14T00:36:17;100868.63;;;21.89
71630;BMP280;59479;51.902;8.212;2023-06-14T00:38:43;100873.09;;;21.84
71630;BMP280;59479;51.902;8.212;2023-06-14T00:41:08;100867.16;;;21.83
71630;BMP280;59479;51.902;8.212;2023-06-14T00:43:33;100867.81;;;21.88
71630;BMP280;59479;51.902;8.212;2023-06-14T00:46:00;100874.72;;;21.86
71630;BMP280;59479;51.902;8.212;2023-06-14T00:48:25;100873.31;;;21.79
71630;BMP280;59479;51.902;8.212;2023-06-14T00:50:51;100873.50;;;21.75
71630;BMP280;59479;51.902;8.212;2023-06-14T00:53:18;100875.94;;;21.78
71630;BMP280;59479;51.902;8.212;2023-06-14T00:55:44;100876.81;;;21.77
71630;BMP280;59479;51.902;8.212;2023-06-14T00:58:10;100877.78;;;21.74
71630;BMP280;59479;51.902;8.212;2023-06-14T01:00:36;100880.66;;;21.67
71630;BMP280;59479;51.902;8.212;2023-06-14T01:03:01;100887.63;;;21.63
71630;BMP280;59479;51.902;8.212;2023-06-14T01:05:27;100881.69;;;21.63
71630;BMP280;59479;51.902;8.212;2023-06-14T01:10:52;100886.16;;;21.58
71630;BMP280;59479;51.902;8.212;2023-06-14T01:13:29;100885.63;;;21.50
71630;BMP280;59479;51.902;8.212;2023-06-14T01:15:57;100880.56;;;21.49
71630;BMP280;59479;51.902;8.212;2023-06-14T01:18:23;100885.72;;;21.47
71630;BMP280;59479;51.902;8.212;2023-06-14T01:20:49;100892.97;;;21.36
71630;BMP280;59479;51.902;8.212;2023-06-14T01:23:19;100888.81;;;21.34
71630;BMP280;59479;51.902;8.212;2023-06-14T01:25:44;100894.00;;;21.32
71630;BMP280;59479;51.902;8.212;2023-06-14T01:28:10;100891.44;;;21.32
71630;BMP280;59479;51.902;8.212;2023-06-14T01:30:39;100895.75;;;21.30
71630;BMP280;59479;51.902;8.212;2023-06-14T01:33:08;100894.22;;;21.26
71630;BMP280;59479;51.902;8.212;2023-06-14T01:35:34;100894.22;;;21.26
71630;BMP280;59479;51.902;8.212;2023-06-14T01:38:00;100894.22;;;21.26
71630;BMP280;59479;51.902;8.212;2023-06-14T01:40:25;100900.16;;;21.27
71630;BMP280;59479;51.902;8.212;2023-06-14T01:42:51;100896.91;;;21.23
71630;BMP280;59479;51.902;8.212;2023-06-14T01:45:18;100894.66;;;21.16
71630;BMP280;59479;51.902;8.212;2023-06-14T01:47:44;100897.38;;;21.11
71630;BMP280;59479;51.902;8.212;2023-06-14T01:50:10;100896.66;;;21.08
71630;BMP280;59479;51.902;8.212;2023-06-14T01:52:37;100888.34;;;21.03
71630;BMP280;59479;51.902;8.212;2023-06-14T01:55:02;100892.69;;;21.01
71630;BMP280;59479;51.902;8.212;2023-06-14T01:57:27;100895.41;;;20.97
71630;BMP280;59479;51.902;8.212;2023-06-14T01:59:53;100899.81;;;20.93
71630;BMP280;59479;51.902;8.212;2023-06-14T02:02:18;100894.84;;;20.89
71630;BMP280;59479;51.902;8.212;2023-06-14T02:04:43;100903.53;;;20.85
71630;BMP280;59479;51.902;8.212;2023-06-14T02:07:09;100902.75;;;20.83
71630;BMP280;59479;51.902;8.212;2023-06-14T02:09:34;100903.69;;;20.80
71630;BMP280;59479;51.902;8.212;2023-06-14T02:12:00;100901.44;;;20.73
71630;BMP280;59479;51.902;8.212;2023-06-14T02:14:25;100900.78;;;20.68
71630;BMP280;59479;51.902;8.212;2023-06-14T02:16:51;100913.31;;;20.74
71630;BMP280;59479;51.902;8.212;2023-06-14T02:19:18;100904.25;;;20.65
71630;BMP280;59479;51.902;8.212;2023-06-14T02:21:44;100897.44;;;20.66
71630;BMP280;59479;51.902;8.212;2023-06-14T02:24:09;100908.66;;;20.61
71630;BMP280;59479;51.902;8.212;2023-06-14T02:26:35;100908.84;;;20.56
71630;BMP280;59479;51.902;8.212;2023-06-14T02:29:03;100908.03;;;20.56
71630;BMP280;59479;51.902;8.212;2023-06-14T02:31:28;100911.50;;;20.53
71630;BMP280;59479;51.902;8.212;2023-06-14T02:33:54;100900.53;;;20.51
71630;BMP280;59479;51.902;8.212;2023-06-14T02:36:19;100908.38;;;20.45
71630;BMP280;59479;51.902;8.212;2023-06-14T02:38:45;100913.72;;;20.39
71630;BMP280;59479;51.902;8.212;2023-06-14T02:41:12;100904.50;;;20.35
71630;BMP280;59479;51.902;8.212;2023-06-14T02:43:37;100908.06;;;20.31
71630;BMP280;59479;51.902;8.212;2023-06-14T02:46:03;100909.94;;;20.26
71630;BMP280;59479;51.902;8.212;2023-06-14T02:48:29;100903.03;;;20.28
71630;BMP280;59479;51.902;8.212;2023-06-14T02:50:54;100903.78;;;20.32
71630;BMP280;59479;51.902;8.212;2023-06-14T02:53:21;100916.84;;;20.23
71630;BMP280;59479;51.902;8.212;2023-06-14T02:55:46;100915.13;;;20.23
71630;BMP280;59479;51.902;8.212;2023-06-14T02:58:13;100916.97;;;20.20
71630;BMP280;59479;51.902;8.212;2023-06-14T03:00:39;100907.66;;;20.19
71630;BMP280;59479;51.902;8.212;2023-06-14T03:03:06;100911.22;;;20.14
71630;BMP280;59479;51.902;8.212;2023-06-14T03:05:38;100913.09;;;20.09
71630;BMP280;59479;51.902;8.212;2023-06-14T03:08:06;100922.53;;;20.07
71630;BMP280;59479;51.902;8.212;2023-06-14T03:10:32;100921.81;;;20.03
71630;BMP280;59479;51.902;8.212;2023-06-14T03:12:57;100918.34;;;20.06
71630;BMP280;59479;51.902;8.212;2023-06-14T03:15:23;100928.59;;;20.04
71630;BMP280;59479;51.902;8.212;2023-06-14T03:17:49;100932.97;;;20.01
71630;BMP280;59479;51.902;8.212;2023-06-14T03:20:15;100931.38;;;19.97
71630;BMP280;59479;51.902;8.212;2023-06-14T03:22:41;100933.19;;;19.93
71630;BMP280;59479;51.902;8.212;2023-06-14T03:25:07;100932.41;;;19.91
71630;BMP280;59479;51.902;8.212;2023-06-14T03:27:33;100932.50;;;19.88
71630;BMP280;59479;51.902;8.212;2023-06-14T03:29:58;100935.03;;;19.90
71630;BMP280;59479;51.902;8.212;2023-06-14T03:32:23;100938.63;;;19.84
71630;BMP280;59479;51.902;8.212;2023-06-14T03:34:49;100948.06;;;19.81
71630;BMP280;59479;51.902;8.212;2023-06-14T03:37:16;100952.56;;;19.73
71630;BMP280;59479;51.902;8.212;2023-06-14T03:39:41;100959.38;;;19.73
71630;BMP280;59479;51.902;8.212;2023-06-14T03:42:12;100951.00;;;19.69
71630;BMP280;59479;51.902;8.212;2023-06-14T03:44:37;100951.91;;;19.67
71630;BMP280;59479;51.902;8.212;2023-06-14T03:47:03;100956.31;;;19.62
71630;BMP280;59479;51.902;8.212;2023-06-14T03:49:29;100959.69;;;19.62
71630;BMP280;59479;51.902;8.212;2023-06-14T03:51:54;100963.06;;;19.64
71630;BMP280;59479;51.902;8.212;2023-06-14T03:54:20;100966.56;;;19.60
71630;BMP280;59479;51.902;8.212;2023-06-14T03:56:47;100965.53;;;19.66
71630;BMP280;59479;51.902;8.212;2023-06-14T03:59:12;100970.72;;;19.64
71630;BMP280;59479;51.902;8.212;2023-06-14T04:01:37;100969.28;;;19.56
71630;BMP280;59479;51.902;8.212;2023-06-14T04:04:03;100964.22;;;19.54
71630;BMP280;59479;51.902;8.212;2023-06-14T04:06:29;100967.78;;;19.49
71630;BMP280;59479;51.902;8.212;2023-06-14T04:08:58;100971.22;;;19.48
71630;BMP280;59479;51.902;8.212;2023-06-14T04:11:26;100981.41;;;19.48
71630;BMP280;59479;51.902;8.212;2023-06-14T04:13:51;100979.59;;;19.51
71630;BMP280;59479;51.902;8.212;2023-06-14T04:16:19;100979.69;;;19.48
71630;BMP280;59479;51.902;8.212;2023-06-14T04:18:44;100993.38;;;19.46
71630;BMP280;59479;51.902;8.212;2023-06-14T04:21:09;100985.66;;;19.47
71630;BMP280;59479;51.902;8.212;2023-06-14T04:23:35;100996.81;;;19.45
71630;BMP280;59479;51.902;8.212;2023-06-14T04:26:00;101002.84;;;19.42
71630;BMP280;59479;51.902;8.212;2023-06-14T04:28:27;101001.78;;;19.49
71630;BMP280;59479;51.902;8.212;2023-06-14T04:30:53;101006.75;;;19.52
71630;BMP280;59479;51.902;8.212;2023-06-14T04:33:19;101001.63;;;19.54
71630;BMP280;59479;51.902;8.212;2023-06-14T04:35:44;101002.47;;;19.54
71630;BMP280;59479;51.902;8.212;2023-06-14T04:38:12;101011.00;;;19.53
71630;BMP280;59479;51.902;8.212;2023-06-14T04:40:37;101015.44;;;19.47
71630;BMP280;59479;51.902;8.212;2023-06-14T04:43:08;101021.19;;;19.53
71630;BMP280;59479;51.902;8.212;2023-06-14T04:45:34;101022.88;;;19.54
71630;BMP280;59479;51.902;8.212;2023-06-14T04:47:59;101026.28;;;19.53
71630;BMP280;59479;51.902;8.212;2023-06-14T04:50:25;101021.88;;;19.58
71630;BMP280;59479;51.902;8.212;2023-06-14T04:52:50;101028.63;;;19.61
71630;BMP280;59479;51.902;8.212;2023-06-14T04:55:16;101011.59;;;19.61
71630;BMP280;59479;51.902;8.212;2023-06-14T04:57:44;101016.38;;;19.72
71630;BMP280;59479;51.902;8.212;2023-06-14T05:00:10;101014.53;;;19.75
71630;BMP280;59479;51.902;8.212;2023-06-14T05:02:36;101027.13;;;19.81
71630;BMP280;59479;51.902;8.212;2023-06-14T05:05:03;101018.38;;;19.89
71630;BMP280;59479;51.902;8.212;2023-06-14T05:07:31;101019.03;;;19.96
71630;BMP280;59479;51.902;8.212;2023-06-14T05:09:57;101011.28;;;19.97
71630;BMP280;59479;51.902;8.212;2023-06-14T05:12:22;101012.88;;;20.01
71630;BMP280;59479;51.902;8.212;2023-06-14T05:14:48;101014.53;;;20.02
71630;BMP280;59479;51.902;8.212;2023-06-14T05:17:13;101011.75;;;20.10
71630;BMP280;59479;51.902;8.212;2023-06-14T05:19:39;101018.31;;;20.17
71630;BMP280;59479;51.902;8.212;2023-06-14T05:22:06;101030.03;;;20.22
71630;BMP280;59479;51.902;8.212;2023-06-14T05:24:31;101017.13;;;20.26
71630;BMP280;59479;51.902;8.212;2023-06-14T05:26:57;101022.16;;;20.29
71630;BMP280;59479;51.902;8.212;2023-06-14T05:29:22;101024.59;;;20.32
71630;BMP280;59479;51.902;8.212;2023-06-14T05:31:48;101030.38;;;20.37
71630;BMP280;59479;51.902;8.212;2023-06-14T05:34:13;101024.53;;;20.34
71630;BMP280;59479;51.902;8.212;2023-06-14T05:36:38;101022.94;;;20.31
71630;BMP280;59479;51.902;8.212;2023-06-14T05:39:04;101027.03;;;20.35
71630;BMP280;59479;51.902;8.212;2023-06-14T05:41:30;101033.81;;;20.36
71630;BMP280;59479;51.902;8.212;2023-06-14T05:43:56;101031.03;;;20.42
71630;BMP280;59479;51.902;8.212;2023-06-14T05:46:22;101027.84;;;20.37
71630;BMP280;59479;51.902;8.212;2023-06-14T05:48:51;101043.97;;;20.38
71630;BMP280;59479;51.902;8.212;2023-06-14T05:51:16;101047.47;;;20.35
71630;BMP280;59479;51.902;8.212;2023-06-14T05:53:45;101041.47;;;20.36
71630;BMP280;59479;51.902;8.212;2023-06-14T05:56:11;101058.06;;;20.49
71630;BMP280;59479;51.902;8.212;2023-06-14T05:58:36;101046.03;;;20.53
71630;BMP280;59479;51.902;8.212;2023-06-14T06:01:01;101054.66;;;20.49
71630;BMP280;59479;51.902;8.212;2023-06-14T06:03:27;101062.59;;;20.41
71630;BMP280;59479;51.902;8.212;2023-06-14T06:05:54;101055.59;;;20.46
71630;BMP280;59479;51.902;8.212;2023-06-14T06:08:20;101058.78;;;20.53
71630;BMP280;59479;51.902;8.212;2023-06-14T06:10:46;101053.75;;;20.51
71630;BMP280;59479;51.902;8.212;2023-06-14T06:13:11;101071.81;;;20.45
71630;BMP280;59479;51.902;8.212;2023-06-14T06:15:36;101058.13;;;20.48
71630;BMP280;59479;51.902;8.212;2023-06-14T06:18:02;101055.25;;;20.57
71630;BMP280;59479;51.902;8.212;2023-06-14T06:20:29;101054.31;;;20.59
71630;BMP280;59479;51.902;8.212;2023-06-14T06:22:59;101052.69;;;20.57
71630;BMP280;59479;51.902;8.212;2023-06-14T06:25:25;101060.97;;;20.65
71630;BMP280;59479;51.902;8.212;2023-06-14T06:27:52;101059.97;;;20.68
71630;BMP280;59479;51.902;8.212;2023-06-14T06:30:18;101050.47;;;20.72
71630;BMP280;59479;51.902;8.212;2023-06-14T06:32:44;101052.19;;;20.71
71630;BMP280;59479;51.902;8.212;2023-06-14T06:35:09;101052.00;;;20.77
71630;BMP280;59479;51.902;8.212;2023-06-14T06:37:36;101062.50;;;20.68
71630;BMP280;59479;51.902;8.212;2023-06-14T06:40:02;101064.66;;;20.80
71630;BMP280;59479;51.902;8.212;2023-06-14T06:42:31;101067.41;;;20.99
71630;BMP280;59479;51.902;8.212;2023-06-14T06:44:56;101059.53;;;21.05
71630;BMP280;59479;51.902;8.212;2023-06-14T06:47:22;101076.50;;;21.06
71630;BMP280;59479;51.902;8.212;2023-06-14T06:49:47;101072.25;;;21.06
71630;BMP280;59479;51.902;8.212;2023-06-14T06:52:13;101072.31;;;21.05
71630;BMP280;59479;51.902;8.212;2023-06-14T06:54:39;101079.47;;;21.18
71630;BMP280;59479;51.902;8.212;2023-06-14T06:57:04;101087.00;;;21.22
71630;BMP280;59479;51.902;8.212;2023-06-14T06:59:31;101082.56;;;21.27
71630;BMP280;59479;51.902;8.212;2023-06-14T07:01:57;101079.75;;;21.33
71630;BMP280;59479;51.902;8.212;2023-06-14T07:04:22;101084.25;;;21.27
71630;BMP280;59479;51.902;8.212;2023-06-14T07:06:47;101084.59;;;21.41
71630;BMP280;59479;51.902;8.212;2023-06-14T07:09:13;101078.75;;;21.37
71630;BMP280;59479;51.902;8.212;2023-06-14T07:11:40;101080.53;;;21.35
71630;BMP280;59479;51.902;8.212;2023-06-14T07:14:06;101081.94;;;21.44
71630;BMP280;59479;51.902;8.212;2023-06-14T07:16:31;101088.09;;;21.38
71630;BMP280;59479;51.902;8.212;2023-06-14T07:18:57;101080.41;;;21.38
71630;BMP280;59479;51.902;8.212;2023-06-14T07:21:22;101087.06;;;21.42
71630;BMP280;59479;51.902;8.212;2023-06-14T07:23:48;101085.72;;;21.56
71630;BMP280;59479;51.902;8.212;2023-06-14T07:26:13;101091.34;;;21.66
71630;BMP280;59479;51.902;8.212;2023-06-14T07:28:38;101095.22;;;21.76
71630;BMP280;59479;51.902;8.212;2023-06-14T07:31:04;101093.78;;;21.90
71630;BMP280;59479;51.902;8.212;2023-06-14T07:33:29;101095.34;;;21.94
71630;BMP280;59479;51.902;8.212;2023-06-14T07:35:54;101098.47;;;22.00
71630;BMP280;59479;51.902;8.212;2023-06-14T07:38:20;101094.59;;;22.12
71630;BMP280;59479;51.902;8.212;2023-06-14T07:40:45;101107.00;;;22.01
71630;BMP280;59479;51.902;8.212;2023-06-14T07:43:11;101104.50;;;21.99
71630;BMP280;59479;51.902;8.212;2023-06-14T07:45:37;101099.63;;;22.15
71630;BMP280;59479;51.902;8.212;2023-06-14T07:48:02;101100.78;;;22.29
71630;BMP280;59479;51.902;8.212;2023-06-14T07:50:28;101103.06;;;22.35
71630;BMP280;59479;51.902;8.212;2023-06-14T07:52:53;101097.31;;;22.50
71630;BMP280;59479;51.902;8.212;2023-06-14T07:55:19;101106.81;;;22.48
71630;BMP280;59479;51.902;8.212;2023-06-14T07:57:44;101107.34;;;22.56
71630;BMP280;59479;51.902;8.212;2023-06-14T08:00:10;101107.97;;;22.61
71630;BMP280;59479;51.902;8.212;2023-06-14T08:02:39;101113.75;;;22.66
71630;BMP280;59479;51.902;8.212;2023-06-14T08:05:05;101093.25;;;22.66
71630;BMP280;59479;51.902;8.212;2023-06-14T08:07:30;101096.31;;;22.74
71630;BMP280;59479;51.902;8.212;2023-06-14T08:09:55;101091.13;;;22.75
71630;BMP280;59479;51.902;8.212;2023-06-14T08:12:20;101089.13;;;22.81
71630;BMP280;59479;51.902;8.212;2023-06-14T08:14:46;101094.25;;;22.81
71630;BMP280;59479;51.902;8.212;2023-06-14T08:17:11;101104.56;;;22.80
71630;BMP280;59479;51.902;8.212;2023-06-14T08:19:36;101104.25;;;22.87
71630;BMP280;59479;51.902;8.212;2023-06-14T08:22:02;101103.06;;;22.96
71630;BMP280;59479;51.902;8.212;2023-06-14T08:24:28;101112.34;;;22.98
71630;BMP280;59479;51.902;8.212;2023-06-14T08:26:54;101094.50;;;23.15
71630;BMP280;59479;51.902;8.212;2023-06-14T08:29:19;101096.81;;;23.21
71630;BMP280;59479;51.902;8.212;2023-06-14T08:31:45;101092.00;;;23.14
71630;BMP280;59479;51.902;8.212;2023-06-14T08:34:10;101092.94;;;23.31
71630;BMP280;59479;51.902;8.212;2023-06-14T08:36:36;101096.00;;;23.39
71630;BMP280;59479;51.902;8.212;2023-06-14T08:39:01;101091.69;;;23.39
71630;BMP280;59479;51.902;8.212;2023-06-14T08:41:28;101094.31;;;23.38
71630;BMP280;59479;51.902;8.212;2023-06-14T08:43:54;101103.91;;;23.53
71630;BMP280;59479;51.902;8.212;2023-06-14T08:46:20;101104.13;;;23.66
71630;BMP280;59479;51.902;8.212;2023-06-14T08:48:51;101102.41;;;23.67
71630;BMP280;59479;51.902;8.212;2023-06-14T08:51:20;101100.25;;;23.76
71630;BMP280;59479;51.902;8.212;2023-06-14T08:53:55;101093.53;;;23.74
71630;BMP280;59479;51.902;8.212;2023-06-14T08:56:25;101112.06;;;23.80
71630;BMP280;59479;51.902;8.212;2023-06-14T08:58:51;101101.91;;;23.77
71630;BMP280;59479;51.902;8.212;2023-06-14T09:01:16;101112.59;;;23.68
71630;BMP280;59479;51.902;8.212;2023-06-14T09:03:43;101103.03;;;23.72
71630;BMP280;59479;51.902;8.212;2023-06-14T09:06:11;101108.06;;;23.73
71630;BMP280;59479;51.902;8.212;2023-06-14T09:08:46;101094.69;;;23.85
71630;BMP280;59479;51.902;8.212;2023-06-14T09:11:13;101103.16;;;23.87
71630;BMP280;59479;51.902;8.212;2023-06-14T09:13:40;101110.94;;;23.86
71630;BMP280;59479;51.902;8.212;2023-06-14T09:16:06;101112.44;;;23.90
71630;BMP280;59479;51.902;8.212;2023-06-14T09:18:40;101105.22;;;23.98
71630;BMP280;59479;51.902;8.212;2023-06-14T09:21:09;101126.03;;;23.73
71630;BMP280;59479;51.902;8.212;2023-06-14T09:23:39;101119.13;;;23.75
71630;BMP280;59479;51.902;8.212;2023-06-14T09:26:13;101126.72;;;23.95
71630;BMP280;59479;51.902;8.212;2023-06-14T09:28:43;101138.53;;;23.99
71630;BMP280;59479;51.902;8.212;2023-06-14T09:31:16;101119.84;;;24.14
71630;BMP280;59479;51.902;8.212;2023-06-14T09:33:43;101123.06;;;24.01
71630;BMP280;59479;51.902;8.212;2023-06-14T09:36:15;101127.53;;;24.14
71630;BMP280;59479;51.902;8.212;2023-06-14T09:38:41;101119.19;;;24.27
71630;BMP280;59479;51.902;8.212;2023-06-14T09:41:06;101114.09;;;24.26
71630;BMP280;59479;51.902;8.212;2023-06-14T09:43:33;101113.94;;;24.30
71630;BMP280;59479;51.902;8.212;2023-06-14T09:46:00;101109.41;;;24.35
71630;BMP280;59479;51.902;8.212;2023-06-14T09:48:26;101109.31;;;24.37
71630;BMP280;59479;51.902;8.212;2023-06-14T09:50:55;101113.94;;;24.47
71630;BMP280;59479;51.902;8.212;2023-06-14T09:53:21;101118.53;;;24.57
71630;BMP280;59479;51.902;8.212;2023-06-14T09:55:49;101125.72;;;24.68
71630;BMP280;59479;51.902;8.212;2023-06-14T09:58:16;101112.78;;;24.69
71630;BMP280;59479;51.902;8.212;2023-06-14T10:00:41;101116.13;;;24.54
71630;BMP280;59479;51.902;8.212;2023-06-14T10:03:12;101126.81;;;24.29
71630;BMP280;59479;51.902;8.212;2023-06-14T10:05:39;101125.78;;;24.49
71630;BMP280;59479;51.902;8.212;2023-06-14T10:08:12;101111.03;;;24.70
71630;BMP280;59479;51.902;8.212;2023-06-14T10:10:39;101103.09;;;24.91
71630;BMP280;59479;51.902;8.212;2023-06-14T10:13:06;101101.91;;;24.98
71630;BMP280;59479;51.902;8.212;2023-06-14T10:15:46;101114.28;;;24.90
71630;BMP280;59479;51.902;8.212;2023-06-14T10:18:28;101109.06;;;25.08
71630;BMP280;59479;51.902;8.212;2023-06-14T10:21:16;101106.00;;;25.02
71630;BMP280;59479;51.902;8.212;2023-06-14T10:23:45;101108.81;;;25.13
71630;BMP280;59479;51.902;8.212;2023-06-14T10:26:18;101096.03;;;25.11
71630;BMP280;59479;51.902;8.212;2023-06-14T10:28:55;101107.75;;;25.17
71630;BMP280;59479;51.902;8.212;2023-06-14T10:31:22;101104.69;;;25.10
71630;BMP280;59479;51.902;8.212;2023-06-14T10:39:06;101102.72;;;25.31
71630;BMP280;59479;51.902;8.212;2023-06-14T10:41:35;101108.19;;;25.40
71630;BMP280;59479;51.902;8.212;2023-06-14T10:46:39;101096.28;;;25.39
71630;BMP280;59479;51.902;8.212;2023-06-14T10:49:04;101092.44;;;25.31
71630;BMP280;59479;51.902;8.212;2023-06-14T10:51:38;101096.50;;;25.50
71630;BMP280;59479;51.902;8.212;2023-06-14T10:54:12;101094.13;;;25.47
71630;BMP280;59479;51.902;8.212;2023-06-14T10:56:50;101107.63;;;25.67
71630;BMP280;59479;51.902;8.212;2023-06-14T10:59:17;101087.16;;;25.79
71630;BMP280;59479;51.902;8.212;2023-06-14T11:04:48;101090.31;;;26.00
71630;BMP280;59479;51.902;8.212;2023-06-14T11:07:42;101101.44;;;25.85
71630;BMP280;59479;51.902;8.212;2023-06-14T11:13:00;101103.00;;;26.03
71630;BMP280;59479;51.902;8.212;2023-06-14T11:15:32;101103.53;;;25.94
71630;BMP280;59479;51.902;8.212;2023-06-14T11:18:00;101086.56;;;26.05
71630;BMP280;59479;51.902;8.212;2023-06-14T11:20:27;101088.06;;;26.09
71630;BMP280;59479;51.902;8.212;2023-06-14T11:22:53;101092.75;;;26.17
71630;BMP280;59479;51.902;8.212;2023-06-14T11:25:19;101089.59;;;26.42
71630;BMP280;59479;51.902;8.212;2023-06-14T11:27:45;101089.34;;;26.31
71630;BMP280;59479;51.902;8.212;2023-06-14T11:30:12;101082.72;;;26.57
71630;BMP280;59479;51.902;8.212;2023-06-14T11:32:38;101077.38;;;26.60
71630;BMP280;59479;51.902;8.212;2023-06-14T11:35:04;101083.25;;;26.62
71630;BMP280;59479;51.902;8.212;2023-06-14T11:37:30;101080.06;;;26.72
71630;BMP280;59479;51.902;8.212;2023-06-14T11:39:57;101082.03;;;26.53
71630;BMP280;59479;51.902;8.212;2023-06-14T11:42:22;101072.03;;;26.63
71630;BMP280;59479;51.902;8.212;2023-06-14T11:44:49;101082.41;;;26.47
71630;BMP280;59479;51.902;8.212;2023-06-14T11:47:14;101069.56;;;26.75
71630;BMP280;59479;51.902;8.212;2023-06-14T11:49:40;101075.28;;;26.80
71630;BMP280;59479;51.902;8.212;2023-06-14T11:52:05;101073.81;;;26.76
71630;BMP280;59479;51.902;8.212;2023-06-14T11:54:32;101074.53;;;26.64
71630;BMP280;59479;51.902;8.212;2023-06-14T11:56:58;101076.94;;;26.81
71630;BMP280;59479;51.902;8.212;2023-06-14T11:59:24;101068.88;;;27.01
71630;BMP280;59479;51.902;8.212;2023-06-14T12:01:49;101070.00;;;26.97
71630;BMP280;59479;51.902;8.212;2023-06-14T12:04:23;101065.56;;;27.12
71630;BMP280;59479;51.902;8.212;2023-06-14T12:06:49;101060.38;;;27.12
71630;BMP280;59479;51.902;8.212;2023-06-14T12:09:14;101073.47;;;26.96
71630;BMP280;59479;51.902;8.212;2023-06-14T12:11:43;101061.41;;;26.96
71630;BMP280;59479;51.902;8.212;2023-06-14T12:14:08;101068.16;;;26.99
71630;BMP280;59479;51.902;8.212;2023-06-14T12:16:36;101065.56;;;27.12
71630;BMP280;59479;51.902;8.212;2023-06-14T12:19:16;101067.69;;;27.20
71630;BMP280;59479;51.902;8.212;2023-06-14T12:21:42;101061.41;;;27.24
71630;BMP280;59479;51.902;8.212;2023-06-14T12:24:08;101055.41;;;27.23
71630;BMP280;59479;51.902;8.212;2023-06-14T12:26:40;101050.44;;;27.20
71630;BMP280;59479;51.902;8.212;2023-06-14T12:29:06;101052.81;;;27.37
71630;BMP280;59479;51.902;8.212;2023-06-14T12:31:35;101056.50;;;27.33
71630;BMP280;59479;51.902;8.212;2023-06-14T12:34:00;101069.78;;;27.27
71630;BMP280;59479;51.902;8.212;2023-06-14T12:36:26;101067.22;;;27.27
71630;BMP280;59479;51.902;8.212;2023-06-14T12:38:51;101064.25;;;27.19
71630;BMP280;59479;51.902;8.212;2023-06-14T12:41:21;101067.75;;;27.32
71630;BMP280;59479;51.902;8.212;2023-06-14T12:43:47;101058.28;;;27.47
71630;BMP280;59479;51.902;8.212;2023-06-14T12:46:12;101065.53;;;27.54
71630;BMP280;59479;51.902;8.212;2023-06-14T12:48:38;101069.47;;;27.46
71630;BMP280;59479;51.902;8.212;2023-06-14T12:51:03;101065.44;;;27.42
71630;BMP280;59479;51.902;8.212;2023-06-14T12:53:28;101062.78;;;27.15
71630;BMP280;59479;51.902;8.212;2023-06-14T12:55:53;101071.09;;;27.20
71630;BMP280;59479;51.902;8.212;2023-06-14T12:58:19;101064.31;;;27.46
71630;BMP280;59479;51.902;8.212;2023-06-14T13:00:45;101053.13;;;27.47
71630;BMP280;59479;51.902;8.212;2023-06-14T13:03:10;101059.72;;;27.50
71630;BMP280;59479;51.902;8.212;2023-06-14T13:05:36;101065.78;;;27.63
71630;BMP280;59479;51.902;8.212;2023-06-14T13:08:02;101054.28;;;27.81
71630;BMP280;59479;51.902;8.212;2023-06-14T13:10:27;101056.41;;;28.01
71630;BMP280;59479;51.902;8.212;2023-06-14T13:12:53;101056.66;;;27.84
71630;BMP280;59479;51.902;8.212;2023-06-14T13:15:18;101056.38;;;27.89
71630;BMP280;59479;51.902;8.212;2023-06-14T13:17:44;101055.50;;;27.76
71630;BMP280;59479;51.902;8.212;2023-06-14T13:20:14;101072.31;;;27.69
71630;BMP280;59479;51.902;8.212;2023-06-14T13:22:40;101060.84;;;27.73
71630;BMP280;59479;51.902;8.212;2023-06-14T13:25:06;101060.06;;;27.85
71630;BMP280;59479;51.902;8.212;2023-06-14T13:27:31;101052.38;;;27.97
71630;BMP280;59479;51.902;8.212;2023-06-14T13:29:57;101062.53;;;27.74
71630;BMP280;59479;51.902;8.212;2023-06-14T13:32:23;101065.66;;;27.79
71630;BMP280;59479;51.902;8.212;2023-06-14T13:34:48;101053.38;;;27.82
71630;BMP280;59479;51.902;8.212;2023-06-14T13:37:14;101062.53;;;27.74
71630;BMP280;59479;51.902;8.212;2023-06-14T13:39:39;101058.59;;;27.68
71630;BMP280;59479;51.902;8.212;2023-06-14T13:42:05;101049.44;;;27.63
71630;BMP280;59479;51.902;8.212;2023-06-14T13:44:30;101048.63;;;27.62
71630;BMP280;59479;51.902;8.212;2023-06-14T13:46:56;101059.91;;;27.48
71630;BMP280;59479;51.902;8.212;2023-06-14T13:49:22;101058.97;;;27.62
71630;BMP280;59479;51.902;8.212;2023-06-14T13:51:47;101049.53;;;27.88
71630;BMP280;59479;51.902;8.212;2023-06-14T13:54:13;101049.00;;;27.83
71630;BMP280;59479;51.902;8.212;2023-06-14T13:56:40;101057.28;;;27.75
71630;BMP280;59479;51.902;8.212;2023-06-14T13:59:06;101058.59;;;27.68
71630;BMP280;59479;51.902;8.212;2023-06-14T14:01:31;101057.41;;;27.60
71630;BMP280;59479;51.902;8.212;2023-06-14T14:03:56;101038.34;;;27.75
71630;BMP280;59479;51.902;8.212;2023-06-14T14:06:23;101037.66;;;27.85
71630;BMP280;59479;51.902;8.212;2023-06-14T14:08:49;101039.56;;;27.95
71630;BMP280;59479;51.902;8.212;2023-06-14T14:11:14;101042.00;;;28.11